Time;durP1;ratioP1;P1;durP2;ratioP2;P2;SDS_P1;SDS_P2;PMS_P1;PMS_P2;Temp;Humidity;BMP_temperature;BMP_pressure;BME280_temperature;BME280_humidity;BME280_pressure;Samples;Min_cycle;Max_cycle;Signal;HPM_P1;HPM_P2
2022/06/28 00:02:16;;;;;;;;;2.00;1.00;;;;;34.65;22.58;101629.81;5037429;28;45376;-82
2022/06/28 00:04:41;;;;;;;;;2.33;1.00;;;;;34.81;22.68;101642.56;5036928;28;45376;-82
2022/06/28 00:07:07;;;;;;;;;1.33;1.00;;;;;34.82;22.80;101636.94;5037566;28;45395;-82
2022/06/28 00:09:32;;;;;;;;;0.00;0.00;;;;;34.93;22.52;101632.56;5019262;28;45389;-82
2022/06/28 00:11:58;;;;;;;;;1.00;1.00;;;;;34.94;22.61;101626.06;5019617;28;45420;-82
2022/06/28 00:17:07;;;;;;;;;1.00;1.00;;;;;35.06;22.27;101632.56;5037074;28;45744;-82
2022/06/28 00:19:33;;;;;;;;;1.33;1.33;;;;;34.98;22.28;101620.22;5018772;28;45435;-82
2022/06/28 00:21:58;;;;;;;;;2.67;1.00;;;;;34.96;22.35;101607.53;5036958;28;45544;-82
2022/06/28 00:24:24;;;;;;;;;4.00;1.00;;;;;35.11;22.14;101630.38;5037129;28;45531;-82
2022/06/28 00:26:50;;;;;;;;;0.33;0.33;;;;;35.08;22.30;101625.97;5036895;28;45457;-82
2022/06/28 00:29:16;;;;;;;;;1.00;1.00;;;;;35.15;22.18;101626.41;5036997;28;45441;-82
2022/06/28 00:31:41;;;;;;;;;1.00;1.00;;;;;34.96;22.30;101605.63;5019001;28;45455;-82
2022/06/28 00:34:07;;;;;;;;;1.00;1.00;;;;;35.02;22.12;101621.75;5036676;28;45508;-82
2022/06/28 00:36:33;;;;;;;;;0.33;0.33;;;;;35.08;22.14;101628.72;5036783;28;45367;-82
2022/06/28 00:38:59;;;;;;;;;1.00;1.00;;;;;34.91;22.40;101607.84;5036738;28;45387;-82
2022/06/28 00:41:25;;;;;;;;;1.00;1.00;;;;;34.92;22.18;101611.47;5036720;28;45466;-82
2022/06/28 00:43:51;;;;;;;;;2.00;1.00;;;;;34.94;22.26;101615.91;5036575;28;45634;-82
2022/06/28 00:46:16;;;;;;;;;1.00;1.00;;;;;35.02;22.48;101627.28;5036740;28;45363;-82
2022/06/28 00:48:42;;;;;;;;;1.00;1.00;;;;;34.98;22.31;101611.03;5036057;28;45251;-82
2022/06/28 00:51:10;;;;;;;;;2.33;1.00;;;;;34.89;22.72;101606.19;5018618;28;45510;-82
2022/06/28 00:53:35;;;;;;;;;1.00;1.00;;;;;34.97;22.23;101618.44;5036560;28;45368;-82
2022/06/28 00:56:01;;;;;;;;;2.00;0.75;;;;;34.85;22.60;101598.16;5018484;28;48165;-82
2022/06/28 00:58:26;;;;;;;;;1.75;0.50;;;;;34.87;22.53;101609.94;5036568;28;45296;-82
2022/06/28 01:00:52;;;;;;;;;0.33;0.33;;;;;34.91;22.38;101617.97;5036416;28;45457;-82
2022/06/28 01:03:22;;;;;;;;;2.00;1.00;;;;;34.94;22.10;101629.69;5036048;28;45407;-82
2022/06/28 01:05:49;;;;;;;;;1.00;0.75;;;;;34.90;22.38;101630.03;5035977;28;45644;-82
2022/06/28 01:08:15;;;;;;;;;3.33;1.00;;;;;34.81;22.40;101612.22;5036417;28;45370;-82
2022/06/28 01:10:41;;;;;;;;;1.67;1.00;;;;;34.89;22.45;101619.97;5036135;28;45578;-82
2022/06/28 01:13:08;;;;;;;;;2.33;1.00;;;;;34.93;22.40;101619.66;5018413;28;45373;-82
2022/06/28 01:15:33;;;;;;;;;0.00;0.00;;;;;34.84;22.27;101615.66;5035847;28;45451;-82
2022/06/28 01:18:01;;;;;;;;;1.00;1.00;;;;;34.73;22.73;101609.09;5018001;28;45526;-81
2022/06/28 01:20:26;;;;;;;;;1.00;1.00;;;;;34.60;22.70;101612.72;5036187;28;45336;-81
2022/06/28 01:22:53;;;;;;;;;0.00;0.00;;;;;34.63;22.63;101612.50;5035562;28;45525;-81
2022/06/28 01:25:19;;;;;;;;;0.00;0.00;;;;;34.65;22.88;101615.16;5036232;28;45502;-81
2022/06/28 01:27:46;;;;;;;;;0.67;0.67;;;;;34.63;22.75;101628.19;5017940;28;45183;-81
2022/06/28 01:30:12;;;;;;;;;1.00;1.00;;;;;34.62;22.84;101619.00;5035841;28;45593;-81
2022/06/28 01:32:37;;;;;;;;;0.00;0.00;;;;;34.59;22.81;101612.84;5018029;28;45629;-81
2022/06/28 01:35:03;;;;;;;;;1.00;1.00;;;;;34.62;22.58;101626.41;5035894;28;45458;-81
2022/06/28 01:37:29;;;;;;;;;1.00;0.00;;;;;34.60;22.97;101609.97;5036139;28;45460;-81
2022/06/28 01:39:54;;;;;;;;;0.67;0.67;;;;;34.50;22.32;101598.72;5035905;28;45402;-82
2022/06/28 01:42:20;;;;;;;;;2.00;1.00;;;;;34.61;22.54;101610.84;5035846;28;45392;-81
2022/06/28 01:44:46;;;;;;;;;0.00;0.00;;;;;34.53;22.83;101615.03;5017180;28;46523;-82
2022/06/28 01:47:13;;;;;;;;;0.00;0.00;;;;;34.49;22.66;101602.44;5035869;28;45451;-81
2022/06/28 01:49:39;;;;;;;;;1.00;1.00;;;;;34.38;22.47;101604.19;5035758;28;45400;-81
2022/06/28 01:52:05;;;;;;;;;0.00;0.00;;;;;34.32;22.64;101600.84;5017150;28;45542;-81
2022/06/28 01:54:31;;;;;;;;;0.00;0.00;;;;;34.24;22.67;101614.22;5035692;28;45625;-81
2022/06/28 01:56:56;;;;;;;;;2.00;1.00;;;;;34.13;22.76;101608.56;5017611;28;45524;-81
2022/06/28 01:59:23;;;;;;;;;2.00;0.00;;;;;34.18;22.89;101626.53;5035502;28;45497;-81
2022/06/28 02:01:49;;;;;;;;;1.00;1.00;;;;;34.13;22.95;101616.81;5035176;28;45348;-81
2022/06/28 02:04:24;;;;;;;;;0.00;0.00;;;;;33.97;23.04;101617.84;5017475;28;47037;-81
2022/06/28 02:06:50;;;;;;;;;0.00;0.00;;;;;33.83;23.47;101617.88;5035330;28;45446;-82
2022/06/28 02:09:15;;;;;;;;;1.00;1.00;;;;;33.88;23.19;101606.56;5035640;28;45392;-81
2022/06/28 02:11:41;;;;;;;;;0.00;0.00;;;;;33.97;23.67;101612.34;5035492;28;45453;-81
2022/06/28 02:14:07;;;;;;;;;0.00;0.00;;;;;33.94;23.44;101581.38;5034885;28;46615;-82
2022/06/28 02:16:32;;;;;;;;;0.00;0.00;;;;;34.01;23.50;101591.00;5035392;28;45394;-81
2022/06/28 02:18:57;;;;;;;;;2.00;1.00;;;;;34.05;23.53;101598.09;5035268;28;45364;-81
2022/06/28 02:21:23;;;;;;;;;1.00;1.00;;;;;34.10;23.28;101604.13;5035033;28;45376;-80
2022/06/28 02:23:49;;;;;;;;;1.00;1.00;;;;;34.15;23.28;101610.22;5035034;28;46436;-81
2022/06/28 02:26:14;;;;;;;;;1.33;1.33;;;;;34.22;23.21;101609.81;5035415;28;45352;-80
2022/06/28 02:28:41;;;;;;;;;1.33;1.33;;;;;34.21;23.47;101608.06;5034925;28;45427;-80
2022/06/28 02:31:14;;;;;;;;;1.00;1.00;;;;;34.13;23.19;101600.31;5017297;28;45431;-81
2022/06/28 02:33:42;;;;;;;;;3.00;1.67;;;;;34.21;23.67;101610.81;5035041;28;46522;-81
2022/06/28 02:41:36;;;;;;;;;2.33;1.33;;;;;33.79;23.34;101550.25;5035252;28;45556;-81
2022/06/28 02:44:02;;;;;;;;;1.33;1.33;;;;;34.01;23.38;101588.25;5034403;28;46263;-81
2022/06/28 02:46:27;;;;;;;;;1.00;1.00;;;;;34.11;23.41;101603.16;5016949;28;45284;-81
2022/06/28 02:48:53;;;;;;;;;2.00;1.00;;;;;34.09;23.79;101599.59;5034970;28;45903;-81
2022/06/28 02:51:20;;;;;;;;;1.33;1.00;;;;;34.04;23.53;101601.81;5034780;28;45474;-81
2022/06/28 02:53:45;;;;;;;;;4.00;2.00;;;;;34.06;23.35;101605.31;5016589;28;48263;-81
2022/06/28 02:56:11;;;;;;;;;2.00;0.00;;;;;33.88;23.33;101576.28;5034740;28;45494;-81
2022/06/28 02:58:36;;;;;;;;;3.00;1.00;;;;;33.92;23.38;101583.34;5034582;28;45523;-81
2022/06/28 03:01:01;;;;;;;;;2.00;2.00;;;;;33.92;23.48;101580.59;5034570;28;45640;-81
2022/06/28 03:03:27;;;;;;;;;1.00;1.00;;;;;33.85;23.55;101570.00;5034498;28;45502;-80
2022/06/28 03:05:52;;;;;;;;;4.67;1.00;;;;;33.97;23.81;101589.44;5037915;28;45526;-79
2022/06/28 03:08:17;;;;;;;;;1.00;1.00;;;;;33.94;23.44;101595.13;5020607;28;45767;-79
2022/06/28 03:10:43;;;;;;;;;1.00;1.00;;;;;34.00;23.31;101603.00;5037817;28;47306;-80
2022/06/28 03:13:09;;;;;;;;;1.00;1.00;;;;;33.98;23.87;101605.88;5037584;28;46085;-79
2022/06/28 03:15:34;;;;;;;;;1.00;1.00;;;;;33.81;23.49;101589.56;5020377;28;45835;-79
2022/06/28 03:18:00;;;;;;;;;1.00;1.00;;;;;33.78;23.85;101578.75;5038052;28;45532;-79
2022/06/28 03:20:26;;;;;;;;;2.00;1.00;;;;;33.87;23.49;101604.78;5038036;28;45377;-79
2022/06/28 03:22:51;;;;;;;;;1.00;1.00;;;;;33.85;23.43;101597.53;5037406;28;46283;-79
2022/06/28 03:25:17;;;;;;;;;2.33;1.67;;;;;33.60;23.58;101561.56;5019997;28;45655;-79
2022/06/28 03:27:42;;;;;;;;;1.00;1.00;;;;;33.77;23.47;101605.41;5037644;28;45687;-79
2022/06/28 03:30:08;;;;;;;;;2.00;1.00;;;;;33.74;23.85;101586.31;5037659;28;49606;-79
2022/06/28 03:32:33;;;;;;;;;1.00;1.00;;;;;33.77;23.50;101604.50;5020021;28;46917;-79
2022/06/28 03:34:59;;;;;;;;;1.00;1.00;;;;;33.76;23.89;101595.38;5019693;28;45451;-79
2022/06/28 03:37:24;;;;;;;;;1.00;1.00;;;;;33.87;23.64;101613.94;5037878;28;45360;-79
2022/06/28 03:39:50;;;;;;;;;1.00;1.00;;;;;33.86;23.84;101601.16;5037190;28;45578;-79
2022/06/28 03:42:16;;;;;;;;;1.00;1.00;;;;;33.74;23.49;101601.94;5019517;28;47174;-80
2022/06/28 03:44:41;;;;;;;;;0.33;0.33;;;;;33.61;23.95;101583.47;5037456;28;45491;-79
2022/06/28 03:47:06;;;;;;;;;0.67;0.67;;;;;33.69;23.52;101602.25;5037632;28;45402;-79
2022/06/28 03:49:32;;;;;;;;;1.00;1.00;;;;;33.62;23.73;101587.13;5037883;28;45417;-79
2022/06/28 03:51:57;;;;;;;;;1.67;1.67;;;;;33.65;23.76;101597.94;5019154;28;47581;-81
2022/06/28 03:54:23;;;;;;;;;2.33;1.00;;;;;33.51;23.94;101583.19;5037628;28;45376;-80
2022/06/28 03:56:48;;;;;;;;;1.00;1.00;;;;;33.49;23.65;101587.06;5019117;28;45403;-80
2022/06/28 03:59:14;;;;;;;;;1.00;1.00;;;;;33.56;23.61;101596.66;5019744;28;45513;-80
2022/06/28 04:01:39;;;;;;;;;1.00;1.00;;;;;33.63;23.65;101606.28;5037418;28;46279;-80
2022/06/28 04:04:04;;;;;;;;;2.00;1.00;;;;;33.56;23.86;101607.66;5037170;28;45341;-79
2022/06/28 04:06:30;;;;;;;;;0.67;0.67;;;;;33.37;23.85;101585.97;5019489;28;45281;-79
2022/06/28 04:08:55;;;;;;;;;2.33;1.00;;;;;33.44;24.26;101591.94;5037154;28;45558;-79
2022/06/28 04:11:20;;;;;;;;;0.67;0.67;;;;;33.42;23.97;101594.81;5036706;28;45347;-79
2022/06/28 04:13:48;;;;;;;;;2.00;1.00;;;;;33.44;24.02;101606.56;5036972;28;45252;-79
2022/06/28 04:16:14;;;;;;;;;0.67;0.67;;;;;33.48;24.25;101616.41;5018801;28;45446;-79
2022/06/28 04:18:43;;;;;;;;;2.00;1.00;;;;;33.46;24.24;101603.72;5036857;28;45273;-79
2022/06/28 04:21:10;;;;;;;;;2.33;1.00;;;;;33.39;24.14;101584.00;5036562;28;45535;-79
2022/06/28 04:23:36;;;;;;;;;1.00;1.00;;;;;33.44;24.18;101587.31;5036899;28;45606;-79
2022/06/28 04:26:02;;;;;;;;;4.67;1.67;;;;;33.61;24.30;101615.63;5036104;28;45431;-79
2022/06/28 04:28:27;;;;;;;;;1.00;1.00;;;;;33.64;23.91;101615.41;5036953;28;45526;-79
2022/06/28 04:30:52;;;;;;;;;2.67;1.00;;;;;33.69;23.86;101624.25;5018769;28;47096;-80
2022/06/28 04:33:18;;;;;;;;;1.33;1.33;;;;;33.55;23.96;101596.78;5036599;28;45495;-80
2022/06/28 04:35:43;;;;;;;;;2.00;2.00;;;;;33.59;23.58;101607.47;5042674;28;45474;-80
2022/06/28 04:38:09;;;;;;;;;2.00;1.00;;;;;33.65;23.65;101607.06;5056645;28;45609;-80
2022/06/28 04:40:34;;;;;;;;;1.00;1.00;;;;;33.64;23.79;101620.91;5023135;28;47218;-80
2022/06/28 04:43:02;;;;;;;;;1.00;1.00;;;;;33.46;23.95;101611.97;5036612;28;45543;-80
2022/06/28 04:45:29;;;;;;;;;1.67;1.00;;;;;33.44;23.88;101606.56;5036666;28;45413;-80
2022/06/28 04:47:55;;;;;;;;;1.00;1.00;;;;;33.51;24.14;101620.84;5035479;28;45428;-79
2022/06/28 04:50:20;;;;;;;;;2.00;0.67;;;;;33.58;23.63;101629.56;5035943;28;45928;-80
2022/06/28 04:52:46;;;;;;;;;2.00;2.00;;;;;33.59;23.73;101621.22;5034423;28;45541;-82
2022/06/28 04:55:12;;;;;;;;;1.33;1.00;;;;;33.59;23.45;101612.97;5034400;28;45400;-82
2022/06/28 04:57:37;;;;;;;;;1.33;1.00;;;;;33.73;23.65;101624.94;5036452;28;45368;-81
2022/06/28 05:00:03;;;;;;;;;1.00;1.00;;;;;33.79;23.52;101636.47;5017208;28;46907;-82
2022/06/28 05:02:29;;;;;;;;;2.67;1.00;;;;;33.87;23.55;101626.81;5038664;28;45325;-82
2022/06/28 05:04:54;;;;;;;;;1.00;1.00;;;;;33.87;23.81;101641.47;5056157;28;45300;-81
2022/06/28 05:07:19;;;;;;;;;1.00;1.00;;;;;33.81;23.47;101637.25;5046134;28;45478;-80
2022/06/28 05:09:45;;;;;;;;;1.00;1.00;;;;;33.71;23.16;101619.53;5035853;28;46704;-82
2022/06/28 05:12:10;;;;;;;;;1.00;1.00;;;;;33.68;22.91;101630.75;5035938;28;45380;-81
2022/06/28 05:14:36;;;;;;;;;1.00;1.00;;;;;33.85;23.49;101637.94;5036207;28;45499;-82
2022/06/28 05:17:01;;;;;;;;;1.00;1.00;;;;;33.75;23.24;101634.84;5018316;28;45428;-82
2022/06/28 05:19:28;;;;;;;;;1.67;1.00;;;;;33.74;23.17;101643.22;5039538;28;47484;-82
2022/06/28 05:21:54;;;;;;;;;1.00;1.00;;;;;33.67;23.05;101627.13;5040536;28;45558;-81
2022/06/28 05:24:19;;;;;;;;;1.00;1.00;;;;;33.76;23.09;101620.16;5022307;28;45471;-80
2022/06/28 05:26:44;;;;;;;;;1.67;1.67;;;;;33.84;22.97;101634.31;5035050;28;45566;-80
2022/06/28 05:29:10;;;;;;;;;1.67;0.33;;;;;33.76;22.97;101611.91;5035228;28;45466;-78
2022/06/28 05:31:36;;;;;;;;;1.00;1.00;;;;;33.89;22.95;101633.13;5036036;28;45509;-86
2022/06/28 05:34:02;;;;;;;;;1.00;1.00;;;;;33.89;23.16;101633.97;5035519;28;45395;-80
2022/06/28 05:36:28;;;;;;;;;1.00;1.00;;;;;33.90;23.02;101643.16;5035781;28;45363;-80
2022/06/28 05:38:53;;;;;;;;;2.00;0.33;;;;;33.98;22.75;101641.66;5034030;28;48396;-80
2022/06/28 05:41:18;;;;;;;;;1.00;0.00;;;;;33.88;22.52;101623.09;5033904;28;45388;-79
2022/06/28 05:43:43;;;;;;;;;0.00;0.00;;;;;34.07;22.66;101640.16;5035838;28;45558;-79
2022/06/28 05:46:09;;;;;;;;;1.00;0.00;;;;;34.11;22.71;101635.34;5035020;28;45486;-80
2022/06/28 05:48:34;;;;;;;;;0.00;0.00;;;;;34.16;22.53;101634.03;5035313;28;45618;-80
2022/06/28 05:50:59;;;;;;;;;1.00;0.00;;;;;34.20;22.74;101637.44;5035100;28;46818;-79
2022/06/28 05:53:25;;;;;;;;;3.00;2.00;;;;;34.21;22.54;101636.47;5017147;28;45439;-73
2022/06/28 05:55:50;;;;;;;;;0.00;0.00;;;;;34.22;22.34;101629.97;5035588;28;45592;-79
2022/06/28 05:58:16;;;;;;;;;1.00;1.00;;;;;34.22;22.44;101623.56;5034962;28;46270;-76
2022/06/28 06:00:41;;;;;;;;;0.00;0.00;;;;;34.27;22.46;101629.66;5044220;28;45337;-76
2022/06/28 06:03:07;;;;;;;;;0.00;0.00;;;;;34.08;22.05;101619.91;5037679;28;45375;-76
2022/06/28 06:05:32;;;;;;;;;0.00;0.00;;;;;34.16;22.02;101627.63;5055840;28;45444;-76
2022/06/28 06:07:58;;;;;;;;;1.00;1.00;;;;;34.17;22.25;101616.50;5055381;28;46165;-76
2022/06/28 06:10:23;;;;;;;;;0.00;0.00;;;;;34.23;21.96;101633.59;5055106;28;45346;-76
2022/06/28 06:12:48;;;;;;;;;0.33;0.33;;;;;34.13;22.13;101609.44;5054484;28;45431;-76
2022/06/28 06:15:14;;;;;;;;;0.67;0.00;;;;;34.22;22.02;101629.09;5055187;28;45588;-76
2022/06/28 06:17:39;;;;;;;;;0.00;0.00;;;;;34.10;22.22;101598.63;5055033;28;46231;-76
2022/06/28 06:20:05;;;;;;;;;0.00;0.00;;;;;34.21;21.75;101619.94;5037793;28;45246;-76
2022/06/28 06:22:30;;;;;;;;;0.33;0.33;;;;;34.06;21.87;101621.84;5034779;28;45329;-76
2022/06/28 06:24:56;;;;;;;;;2.00;0.00;;;;;34.22;22.03;101620.81;5035285;28;45593;-76
2022/06/28 06:27:21;;;;;;;;;0.00;0.00;;;;;34.31;22.11;101632.13;5034751;28;45317;-76
2022/06/28 06:29:46;;;;;;;;;1.00;1.00;;;;;34.30;21.67;101622.09;5035113;28;45461;-76
2022/06/28 06:32:12;;;;;;;;;1.25;0.25;;;;;34.30;21.99;101608.31;5016700;28;46128;-76
2022/06/28 06:34:37;;;;;;;;;1.00;1.00;;;;;34.40;21.87;101614.09;5034471;28;45391;-76
2022/06/28 06:37:03;;;;;;;;;1.00;1.00;;;;;34.46;22.10;101626.56;5034487;28;45561;-76
2022/06/28 06:39:29;;;;;;;;;1.00;1.00;;;;;34.49;21.66;101609.84;5038035;28;45351;-76
2022/06/28 06:41:54;;;;;;;;;2.00;1.00;;;;;34.43;21.92;101602.88;5020503;28;45449;-76
2022/06/28 06:44:19;;;;;;;;;2.67;0.33;;;;;34.45;21.77;101594.50;5038305;28;45638;-76
2022/06/28 06:46:44;;;;;;;;;0.00;0.00;;;;;34.44;22.04;101582.59;5038236;28;45506;-76
2022/06/28 06:49:14;;;;;;;;;1.00;1.00;;;;;34.67;22.09;101619.59;5037745;28;45425;-76
2022/06/28 06:51:43;;;;;;;;;3.00;1.00;;;;;34.64;21.92;101589.47;5020541;28;45419;-76
2022/06/28 06:54:08;;;;;;;;;2.67;1.00;;;;;34.70;21.96;101594.56;5020200;28;45438;-76
2022/06/28 06:56:34;;;;;;;;;2.00;1.00;;;;;34.75;21.48;101598.88;5037997;28;45458;-76
2022/06/28 06:58:59;;;;;;;;;1.00;1.00;;;;;34.73;21.79;101596.22;5020243;28;45398;-76
2022/06/28 07:01:28;;;;;;;;;0.00;0.00;;;;;34.47;21.98;101541.06;5038237;28;45349;-76
2022/06/28 07:03:54;;;;;;;;;1.67;0.00;;;;;34.93;21.97;101607.75;5019780;28;45348;-76
2022/06/28 07:06:19;;;;;;;;;0.67;0.67;;;;;34.94;21.94;101587.47;5037535;28;45455;-76
2022/06/28 07:08:45;;;;;;;;;2.00;1.00;;;;;34.97;21.71;101595.50;5038113;28;45394;-76
2022/06/28 07:11:10;;;;;;;;;1.00;1.00;;;;;35.04;22.07;101597.69;5037754;28;45296;-77
2022/06/28 07:13:36;;;;;;;;;0.67;0.67;;;;;35.04;22.13;101591.31;5020176;28;45336;-76
2022/06/28 07:16:01;;;;;;;;;1.00;1.00;;;;;35.08;22.15;101592.88;5019989;28;46201;-76
2022/06/28 07:18:27;;;;;;;;;1.00;1.00;;;;;35.02;22.30;101572.13;5037207;28;45459;-76
2022/06/28 07:20:55;;;;;;;;;2.00;0.33;;;;;35.10;22.04;101584.47;5038179;28;45427;-76
2022/06/28 07:23:20;;;;;;;;;2.00;1.00;;;;;35.19;22.13;101586.56;5037529;28;45733;-76
2022/06/28 07:25:46;;;;;;;;;2.00;2.00;;;;;35.28;22.13;101585.03;5037924;28;46102;-76
2022/06/28 07:28:11;;;;;;;;;2.67;1.00;;;;;35.13;22.17;101559.44;5019430;28;45530;-76
2022/06/28 07:30:37;;;;;;;;;3.00;1.67;;;;;35.23;21.83;101560.50;5037815;28;45534;-76
2022/06/28 07:33:03;;;;;;;;;3.00;2.00;;;;;35.36;21.94;101566.94;5037371;28;45439;-76
2022/06/28 07:35:28;;;;;;;;;1.00;1.00;;;;;35.43;21.92;101558.19;5019273;28;48000;-76
2022/06/28 07:37:54;;;;;;;;;3.00;1.67;;;;;35.42;22.21;101560.09;5037725;28;45514;-76
2022/06/28 07:40:19;;;;;;;;;1.33;1.33;;;;;35.51;22.09;101567.69;5037498;28;45559;-76
2022/06/28 07:42:45;;;;;;;;;2.00;2.00;;;;;35.58;21.96;101547.91;5037810;28;45316;-76
2022/06/28 07:45:10;;;;;;;;;1.00;1.00;;;;;35.72;21.72;101570.72;5019641;28;46086;-76
2022/06/28 07:47:36;;;;;;;;;2.67;2.67;;;;;35.20;22.04;101520.28;5037390;28;45451;-76
2022/06/28 07:52:45;;;;;;;;;3.00;2.00;;;;;35.58;22.07;101539.63;5037588;28;45455;-76
2022/06/28 07:55:11;;;;;;;;;1.00;1.00;;;;;35.59;22.07;101534.00;5037124;28;46399;-76
2022/06/28 07:57:37;;;;;;;;;2.00;2.00;;;;;35.72;21.85;101550.50;5037518;28;45491;-76
2022/06/28 08:00:07;;;;;;;;;4.00;3.00;;;;;35.78;21.71;101550.06;5037472;28;45502;-76
2022/06/28 08:02:32;;;;;;;;;2.00;2.00;;;;;35.73;22.06;101524.69;5019048;28;45306;-76
2022/06/28 08:04:58;;;;;;;;;1.00;1.00;;;;;35.88;21.75;101540.09;5037377;28;46338;-76
2022/06/28 08:07:23;;;;;;;;;1.00;1.00;;;;;35.78;21.47;101539.03;5036999;28;45465;-76
2022/06/28 08:09:50;;;;;;;;;2.00;2.00;;;;;35.79;21.47;101532.47;5037340;28;45317;-76
2022/06/28 08:12:15;;;;;;;;;1.67;1.00;;;;;35.81;21.83;101536.06;5036945;28;45362;-76
2022/06/28 08:14:41;;;;;;;;;3.33;3.00;;;;;35.88;21.72;101529.06;5037051;28;46504;-76
2022/06/28 08:17:07;;;;;;;;;2.00;2.00;;;;;35.79;21.38;101492.97;5036586;28;45324;-76
2022/06/28 08:19:33;;;;;;;;;1.33;1.33;;;;;36.10;20.90;101541.22;5036994;28;45481;-76
2022/06/28 08:21:58;;;;;;;;;2.00;2.00;;;;;36.01;21.16;101522.59;5036875;28;45527;-76
2022/06/28 08:24:23;;;;;;;;;3.00;1.67;;;;;36.07;21.48;101524.88;5018638;28;47312;-76
2022/06/28 08:26:49;;;;;;;;;2.00;2.00;;;;;35.95;21.62;101507.38;5037094;28;45435;-76
2022/06/28 08:29:17;;;;;;;;;1.00;1.00;;;;;36.09;21.15;101517.38;5036864;28;45386;-76
2022/06/28 08:31:43;;;;;;;;;1.00;1.00;;;;;36.04;21.18;101489.22;5036793;28;45360;-76
2022/06/28 08:34:09;;;;;;;;;2.00;1.00;;;;;36.27;21.00;101515.03;5036697;28;45392;-76
2022/06/28 08:36:34;;;;;;;;;1.00;1.00;;;;;36.22;20.52;101506.25;5036880;28;45511;-76
2022/06/28 08:39:00;;;;;;;;;3.00;1.67;;;;;36.29;20.55;101506.63;5036662;28;45188;-76
2022/06/28 08:41:28;;;;;;;;;2.00;2.00;;;;;36.33;20.48;101491.59;5018881;28;45589;-76
2022/06/28 08:43:54;;;;;;;;;3.00;2.00;;;;;36.19;20.84;101463.16;5036430;28;46111;-76
2022/06/28 08:46:21;;;;;;;;;2.00;1.33;;;;;36.33;20.04;101488.84;5035969;28;45325;-76
2022/06/28 08:48:51;;;;;;;;;1.00;1.00;;;;;36.39;19.75;101496.66;5018800;28;45396;-76
2022/06/28 08:51:18;;;;;;;;;2.00;1.00;;;;;36.33;19.65;101484.22;5036534;28;45531;-76
2022/06/28 08:53:47;;;;;;;;;1.00;1.00;;;;;36.25;19.95;101478.38;5036253;28;45430;-76
2022/06/28 08:56:12;;;;;;;;;2.00;2.00;;;;;36.17;19.93;101448.56;5036211;28;46028;-76
2022/06/28 08:58:42;;;;;;;;;1.33;1.33;;;;;36.41;19.37;101478.06;5036511;28;45449;-76
2022/06/28 09:01:12;;;;;;;;;2.00;2.00;;;;;36.44;19.31;101472.28;5017433;28;45562;-76
2022/06/28 09:03:38;;;;;;;;;4.00;3.00;;;;;36.56;19.18;101470.44;5035885;28;46548;-76
2022/06/28 09:06:04;;;;;;;;;1.67;1.67;;;;;36.68;19.61;101477.75;5035901;28;45329;-76
2022/06/28 09:08:30;;;;;;;;;3.00;2.00;;;;;36.49;19.44;101467.28;5036180;28;45253;-76
2022/06/28 09:10:55;;;;;;;;;2.00;2.00;;;;;36.67;20.01;101473.22;5036320;28;45166;-76
2022/06/28 09:13:21;;;;;;;;;2.00;2.00;;;;;36.72;19.50;101470.06;5035914;28;46282;-76
2022/06/28 09:15:53;;;;;;;;;3.00;2.00;;;;;36.76;18.73;101460.53;5035648;28;45403;-76
2022/06/28 09:18:20;;;;;;;;;0.33;0.33;;;;;36.65;18.54;101466.03;5035926;28;45811;-76
2022/06/28 09:20:50;;;;;;;;;1.00;1.00;;;;;36.69;19.00;101448.22;5036257;28;45178;-76
2022/06/28 09:23:25;;;;;;;;;3.00;2.00;;;;;36.89;18.65;101461.31;5035548;28;46302;-76
2022/06/28 09:25:51;;;;;;;;;1.33;1.33;;;;;36.87;18.34;101452.25;5036040;28;45519;-76
2022/06/28 09:28:28;;;;;;;;;1.00;1.00;;;;;36.82;18.39;101454.53;5036039;28;45474;-76
2022/06/28 09:31:22;;;;;;;;;1.00;1.00;;;;;36.94;17.92;101444.34;5036219;28;45462;-76
2022/06/28 09:34:00;;;;;;;;;4.00;1.67;;;;;36.93;17.71;101448.09;5035788;28;46324;-76
2022/06/28 09:36:26;;;;;;;;;2.00;2.00;;;;;37.00;17.53;101448.50;5035847;28;45343;-76
2022/06/28 09:38:53;;;;;;;;;2.67;1.67;;;;;37.00;17.68;101438.28;5036046;28;45369;-76
2022/06/28 09:41:24;;;;;;;;;3.33;1.33;;;;;36.85;17.36;101434.94;5035776;28;45511;-76
2022/06/28 09:43:55;;;;;;;;;1.33;1.00;;;;;36.88;17.07;101442.97;5035142;28;45407;-76
2022/06/28 09:46:23;;;;;;;;;0.33;0.33;;;;;36.78;17.16;101419.81;5035358;28;45355;-76
2022/06/28 09:48:48;;;;;;;;;1.00;1.00;;;;;36.70;17.65;101414.91;5035866;28;45514;-76
2022/06/28 09:51:22;;;;;;;;;1.00;1.00;;;;;36.89;17.67;101427.25;5035732;28;45242;-76
2022/06/28 09:53:52;;;;;;;;;1.00;1.00;;;;;36.96;17.48;101422.97;5035475;28;46341;-76
2022/06/28 09:56:21;;;;;;;;;2.00;2.00;;;;;37.10;17.97;101423.72;5035453;28;45598;-76
2022/06/28 09:58:47;;;;;;;;;1.00;1.00;;;;;36.70;17.39;101416.81;5017471;28;45493;-76
2022/06/28 10:01:14;;;;;;;;;2.00;1.00;;;;;36.70;16.80;101420.44;5035558;28;45360;-76
2022/06/28 10:03:40;;;;;;;;;1.67;1.00;;;;;36.86;16.64;101413.69;5035222;28;45536;-76
2022/06/28 10:06:06;;;;;;;;;2.00;2.00;;;;;36.86;17.21;101422.84;5035500;28;45441;-76
2022/06/28 10:08:32;;;;;;;;;1.00;1.00;;;;;36.89;17.00;101410.66;5035352;28;45262;-76
2022/06/28 10:10:58;;;;;;;;;1.67;1.67;;;;;36.91;17.32;101406.75;5035447;28;45358;-76
2022/06/28 10:16:18;;;;;;;;;1.00;1.00;;;;;36.97;17.22;101371.31;5035275;28;45338;-76
2022/06/28 10:18:45;;;;;;;;;1.00;1.00;;;;;37.14;17.51;101398.41;5035018;28;45445;-76
2022/06/28 10:21:11;;;;;;;;;1.00;1.00;;;;;37.19;17.05;101398.94;5034850;28;45392;-76
2022/06/28 10:23:42;;;;;;;;;1.33;1.33;;;;;37.18;16.41;101391.63;5034539;28;46708;-76
2022/06/28 10:26:13;;;;;;;;;0.00;0.00;;;;;37.04;16.52;101391.91;5034827;28;45400;-76
2022/06/28 10:29:02;;;;;;;;;0.67;0.67;;;;;37.12;16.33;101394.03;5034822;28;45471;-76
2022/06/28 10:31:29;;;;;;;;;1.00;1.00;;;;;37.25;15.98;101389.22;5034135;28;45376;-76
2022/06/28 10:34:01;;;;;;;;;1.00;1.00;;;;;36.99;16.66;101311.19;5035011;28;45340;-76
2022/06/28 10:36:40;;;;;;;;;3.00;1.33;;;;;37.22;16.87;101383.97;5034614;28;45265;-76
2022/06/28 10:39:06;;;;;;;;;1.00;1.00;;;;;37.31;16.35;101372.13;5035151;28;45383;-75
2022/06/28 10:42:00;;;;;;;;;1.00;1.00;;;;;37.35;16.43;101367.22;5034476;28;45428;-75
2022/06/28 10:44:41;;;;;;;;;2.00;2.00;;;;;37.53;16.86;101382.25;5034617;28;45489;-75
2022/06/28 10:47:07;;;;;;;;;2.00;2.00;;;;;37.48;16.31;101370.69;5016949;28;45876;-75
2022/06/28 10:49:52;;;;;;;;;2.67;2.00;;;;;37.34;16.43;101351.63;5034763;28;45623;-75
2022/06/28 10:52:19;;;;;;;;;1.00;1.00;;;;;37.51;16.20;101370.44;5034907;28;45410;-76
2022/06/28 10:54:56;;;;;;;;;1.00;1.00;;;;;37.44;16.05;101380.25;5034485;28;46467;-76
2022/06/28 10:57:26;;;;;;;;;3.67;1.00;;;;;37.50;16.04;101367.81;5034102;28;45448;-76
2022/06/28 10:59:54;;;;;;;;;3.00;1.00;;;;;37.72;15.65;101366.81;5034434;28;45519;-76
2022/06/28 11:02:20;;;;;;;;;1.00;1.00;;;;;37.84;16.40;101351.06;5034666;28;45561;-76
2022/06/28 11:04:46;;;;;;;;;0.67;0.67;;;;;37.83;16.23;101352.06;5016375;28;46461;-76
2022/06/28 11:07:25;;;;;;;;;1.67;0.00;;;;;37.78;15.67;101343.25;5034373;28;45364;-75
2022/06/28 11:09:58;;;;;;;;;1.33;1.33;;;;;37.49;14.98;101347.53;5034673;28;45344;-76
2022/06/28 11:12:30;;;;;;;;;2.00;1.00;;;;;37.72;15.61;101350.19;5034234;28;45407;-76
2022/06/28 11:15:00;;;;;;;;;4.00;2.00;;;;;37.70;15.82;101355.88;5034449;28;45435;-76
2022/06/28 11:17:46;;;;;;;;;1.00;1.00;;;;;37.59;15.52;101345.72;5016367;28;46024;-76
2022/06/28 11:20:21;;;;;;;;;2.33;1.33;;;;;37.89;15.38;101338.56;5032440;28;45315;-76
2022/06/28 11:22:48;;;;;;;;;2.00;2.00;;;;;37.90;14.82;101345.81;5034286;28;45541;-76
2022/06/28 11:25:15;;;;;;;;;1.00;1.00;;;;;37.85;15.19;101339.84;5034892;28;45423;-76
2022/06/28 11:27:46;;;;;;;;;1.00;1.00;;;;;38.04;15.76;101343.75;5037745;28;45404;-76
2022/06/28 11:30:13;;;;;;;;;1.00;1.00;;;;;38.06;15.04;101339.84;5037915;28;45379;-76
2022/06/28 11:32:41;;;;;;;;;1.00;1.00;;;;;38.15;15.20;101342.78;5037451;28;45353;-76
2022/06/28 11:35:15;;;;;;;;;4.00;2.00;;;;;38.10;15.01;101341.31;5037611;28;46093;-76
2022/06/28 11:37:53;;;;;;;;;0.00;0.00;;;;;37.96;15.08;101327.78;5037490;28;45348;-76